Yokosuka Fwf, Japan

7:40 AM JST on July 30, 2015 (GMT +0900)
Tokyo (Haneda) International | | Change Station
CLOSE
Current Station
Airport
Location: Tokyo,
Elevation: 26 ft
Nearby Weather Stations

Elev 26 ft 35.55 °N, 139.78 °E | Updated 10 minutes ago

Partly Cloudy
Partly Cloudy
84 °F
Feels Like 96 °F
N
5
Wind Variable Wind from ESE

Today
High -- | Low -- °F
--% Chance of Precip.
Yesterday
High -- | Low -- °F
Precip. -- in
4:48 AM 6:47 PM
Waxing Gibbous, 97% visible
Pressure 29.77 in
Visibility 5.0 miles
Clouds Few 1500 ft
Heat Index 96 °F
Dew Point 79 °F
Humidity 84%
Rainfall 0.00 in
Snow Depth Not available.
UV 3 out of 12
Pollen Not available.
Air Quality Not available.
Flu Activity Not available.
METAR RJTT 292230Z 11004KT 8000 FEW015 29/26 Q1008 NOSIG RMK 1CU015 A2978

More Conditions Fewer Conditions

Pressure 29.77 in
Visibility 5.0 miles
Clouds Few 1500 ft
Heat Index 96 °F
Dew Point 79 °F
Humidity 84%
Rainfall 0.00 in
Snow Depth Not available.
UV 3 out of 12
Pollen Not available.
Air Quality Not available.
Flu Activity Not available.
METAR RJTT 292230Z 11004KT 8000 FEW015 29/26 Q1008 NOSIG RMK 1CU015 A2978

More Conditions Fewer Conditions

10-Day Weather Forecast

×

Almanac

Astronomy

Jul. 30, 2015 Rise Set
Actual Time
Civil Twilight
Nautical Twilight
Astronomical Twilight
Moon
Length of Visible Light
Length of Day
Tomorrow will be .
, % of the Moon is Illuminated

Today's Extremes

Country Highs Country Lows

Community

WunderPhotos

Upload Photos

1,842,175 photos uploaded!

WunderBlogs® & News

Nearby

Air Quality

  Air Quality AQ Index Pollutant
Not available.

Snow Depth

Station Depth Elevation

Earthquake Activity

City Distance Mag. Time & Date
Minimum magnitude displayed is 2.5.

Coastal Water Temperatures

Place Temperature

Stations

Nearby Weather Stations

Station Location Temp. Windchill Dew Point Humidity Wind Precip. Elev Updated Type